sensor_id;sensor_type;location;lat;lon;timestamp;P1;P2;P0
62631;PMS5003;48703;51.248;-0.546;2024-03-02T07:01:20;0.21;0.13;
62631;PMS5003;48703;51.248;-0.546;2024-03-02T07:04:22;0.06;0.06;
62631;PMS5003;48703;51.248;-0.546;2024-03-02T07:07:24;0.00;0.00;
62631;PMS5003;48703;51.248;-0.546;2024-03-02T07:10:25;0.00;0.00;
62631;PMS5003;48703;51.248;-0.546;2024-03-02T07:13:27;0.93;0.50;
62631;PMS5003;48703;51.248;-0.546;2024-03-02T07:16:29;0.17;0.00;
62631;PMS5003;48703;51.248;-0.546;2024-03-02T07:19:30;0.04;0.00;
62631;PMS5003;48703;51.248;-0.546;2024-03-02T07:22:32;0.24;0.24;
62631;PMS5003;48703;51.248;-0.546;2024-03-02T07:25:34;0.16;0.16;
62631;PMS5003;48703;51.248;-0.546;2024-03-02T07:28:36;1.20;0.31;
62631;PMS5003;48703;51.248;-0.546;2024-03-02T07:31:38;0.73;0.39;
62631;PMS5003;48703;51.248;-0.546;2024-03-02T07:34:40;0.04;0.04;
62631;PMS5003;48703;51.248;-0.546;2024-03-02T07:37:42;0.73;0.00;
62631;PMS5003;48703;51.248;-0.546;2024-03-02T07:40:43;0.04;0.04;
62631;PMS5003;48703;51.248;-0.546;2024-03-02T07:43:45;0.44;0.00;
62631;PMS5003;48703;51.248;-0.546;2024-03-02T07:46:47;0.34;0.00;
62631;PMS5003;48703;51.248;-0.546;2024-03-02T07:49:49;0.24;0.24;
62631;PMS5003;48703;51.248;-0.546;2024-03-02T07:52:50;0.00;0.00;
62631;PMS5003;48703;51.248;-0.546;2024-03-02T07:55:52;0.34;0.34;
62631;PMS5003;48703;51.248;-0.546;2024-03-02T07:58:54;1.60;0.70;
62631;PMS5003;48703;51.248;-0.546;2024-03-02T08:01:56;0.40;0.19;
62631;PMS5003;48703;51.248;-0.546;2024-03-02T08:04:58;0.30;0.00;
62631;PMS5003;48703;51.248;-0.546;2024-03-02T08:08:00;0.00;0.00;
62631;PMS5003;48703;51.248;-0.546;2024-03-02T08:11:01;0.83;0.43;
62631;PMS5003;48703;51.248;-0.546;2024-03-02T08:14:03;0.00;0.00;
62631;PMS5003;48703;51.248;-0.546;2024-03-02T08:17:05;0.03;0.03;
62631;PMS5003;48703;51.248;-0.546;2024-03-02T08:20:07;0.00;0.00;
62631;PMS5003;48703;51.248;-0.546;2024-03-02T08:23:09;0.23;0.00;
62631;PMS5003;48703;51.248;-0.546;2024-03-02T08:26:11;0.00;0.00;
62631;PMS5003;48703;51.248;-0.546;2024-03-02T08:29:12;0.00;0.00;
62631;PMS5003;48703;51.248;-0.546;2024-03-02T08:32:14;0.36;0.00;
62631;PMS5003;48703;51.248;-0.546;2024-03-02T08:35:16;0.06;0.00;
62631;PMS5003;48703;51.248;-0.546;2024-03-02T08:38:18;0.33;0.33;
62631;PMS5003;48703;51.248;-0.546;2024-03-02T08:41:20;0.00;0.00;
62631;PMS5003;48703;51.248;-0.546;2024-03-02T08:44:21;0.17;0.17;
62631;PMS5003;48703;51.248;-0.546;2024-03-02T08:47:23;0.00;0.00;
62631;PMS5003;48703;51.248;-0.546;2024-03-02T08:50:25;0.13;0.13;
62631;PMS5003;48703;51.248;-0.546;2024-03-02T08:53:27;0.57;0.13;
62631;PMS5003;48703;51.248;-0.546;2024-03-02T08:56:29;0.89;0.13;
62631;PMS5003;48703;51.248;-0.546;2024-03-02T08:59:31;0.41;0.13;
62631;PMS5003;48703;51.248;-0.546;2024-03-02T09:02:32;0.16;0.14;
62631;PMS5003;48703;51.248;-0.546;2024-03-02T09:05:34;0.00;0.00;
62631;PMS5003;48703;51.248;-0.546;2024-03-02T09:08:36;0.93;0.04;
62631;PMS5003;48703;51.248;-0.546;2024-03-02T09:11:38;0.00;0.00;
62631;PMS5003;48703;51.248;-0.546;2024-03-02T09:14:40;0.07;0.07;
62631;PMS5003;48703;51.248;-0.546;2024-03-02T09:17:41;0.26;0.09;
62631;PMS5003;48703;51.248;-0.546;2024-03-02T09:20:43;0.00;0.00;
62631;PMS5003;48703;51.248;-0.546;2024-03-02T09:23:45;0.99;0.43;
62631;PMS5003;48703;51.248;-0.546;2024-03-02T09:26:47;0.86;0.00;
62631;PMS5003;48703;51.248;-0.546;2024-03-02T09:29:49;0.81;0.13;
62631;PMS5003;48703;51.248;-0.546;2024-03-02T09:32:50;0.37;0.37;
62631;PMS5003;48703;51.248;-0.546;2024-03-02T09:35:52;0.06;0.06;
62631;PMS5003;48703;51.248;-0.546;2024-03-02T09:38:54;0.00;0.00;
62631;PMS5003;48703;51.248;-0.546;2024-03-02T09:41:56;0.00;0.00;
62631;PMS5003;48703;51.248;-0.546;2024-03-02T09:44:58;0.30;0.00;
62631;PMS5003;48703;51.248;-0.546;2024-03-02T09:47:59;1.03;1.03;
62631;PMS5003;48703;51.248;-0.546;2024-03-02T09:51:01;0.43;0.43;
62631;PMS5003;48703;51.248;-0.546;2024-03-02T09:54:03;0.14;0.00;
62631;PMS5003;48703;51.248;-0.546;2024-03-02T09:57:05;0.99;0.00;
62631;PMS5003;48703;51.248;-0.546;2024-03-02T10:00:07;0.00;0.00;
62631;PMS5003;48703;51.248;-0.546;2024-03-02T10:03:11;0.00;0.00;
62631;PMS5003;48703;51.248;-0.546;2024-03-02T10:06:26;0.00;0.00;
62631;PMS5003;48703;51.248;-0.546;2024-03-02T10:09:13;0.44;0.00;
62631;PMS5003;48703;51.248;-0.546;2024-03-02T10:12:14;0.00;0.00;
62631;PMS5003;48703;51.248;-0.546;2024-03-02T10:15:23;0.00;0.00;
62631;PMS5003;48703;51.248;-0.546;2024-03-02T10:18:18;0.01;0.01;
62631;PMS5003;48703;51.248;-0.546;2024-03-02T10:21:19;0.00;0.00;
62631;PMS5003;48703;51.248;-0.546;2024-03-02T10:24:21;0.21;0.00;
62631;PMS5003;48703;51.248;-0.546;2024-03-02T10:27:23;0.14;0.00;
62631;PMS5003;48703;51.248;-0.546;2024-03-02T10:30:25;1.53;1.53;
62631;PMS5003;48703;51.248;-0.546;2024-03-02T10:33:26;0.00;0.00;
62631;PMS5003;48703;51.248;-0.546;2024-03-02T10:36:28;0.50;0.33;
62631;PMS5003;48703;51.248;-0.546;2024-03-02T10:39:30;0.43;0.43;
62631;PMS5003;48703;51.248;-0.546;2024-03-02T10:42:32;0.00;0.00;
62631;PMS5003;48703;51.248;-0.546;2024-03-02T10:45:34;2.80;2.11;
62631;PMS5003;48703;51.248;-0.546;2024-03-02T10:48:35;1.39;1.39;
62631;PMS5003;48703;51.248;-0.546;2024-03-02T10:51:37;0.26;0.00;
62631;PMS5003;48703;51.248;-0.546;2024-03-02T10:54:39;0.37;0.37;
62631;PMS5003;48703;51.248;-0.546;2024-03-02T10:57:41;0.00;0.00;
62631;PMS5003;48703;51.248;-0.546;2024-03-02T11:00:43;0.00;0.00;
62631;PMS5003;48703;51.248;-0.546;2024-03-02T11:03:44;0.00;0.00;
62631;PMS5003;48703;51.248;-0.546;2024-03-02T11:06:47;0.00;0.00;
62631;PMS5003;48703;51.248;-0.546;2024-03-02T11:09:49;0.00;0.00;
62631;PMS5003;48703;51.248;-0.546;2024-03-02T11:12:52;0.31;0.00;
62631;PMS5003;48703;51.248;-0.546;2024-03-02T11:15:52;0.00;0.00;
62631;PMS5003;48703;51.248;-0.546;2024-03-02T11:18:53;0.00;0.00;
62631;PMS5003;48703;51.248;-0.546;2024-03-02T11:21:55;0.11;0.11;
62631;PMS5003;48703;51.248;-0.546;2024-03-02T11:24:57;0.00;0.00;
62631;PMS5003;48703;51.248;-0.546;2024-03-02T11:28:02;0.29;0.00;
62631;PMS5003;48703;51.248;-0.546;2024-03-02T11:31:01;0.26;0.26;
62631;PMS5003;48703;51.248;-0.546;2024-03-02T11:34:16;0.00;0.00;
62631;PMS5003;48703;51.248;-0.546;2024-03-02T11:37:04;0.00;0.00;
62631;PMS5003;48703;51.248;-0.546;2024-03-02T11:40:06;0.27;0.27;
62631;PMS5003;48703;51.248;-0.546;2024-03-02T11:43:08;0.00;0.00;
62631;PMS5003;48703;51.248;-0.546;2024-03-02T11:46:10;0.44;0.24;
62631;PMS5003;48703;51.248;-0.546;2024-03-02T11:49:13;0.59;0.33;
62631;PMS5003;48703;51.248;-0.546;2024-03-02T11:52:13;0.34;0.27;
62631;PMS5003;48703;51.248;-0.546;2024-03-02T11:55:15;0.00;0.00;
62631;PMS5003;48703;51.248;-0.546;2024-03-02T11:58:17;0.00;0.00;
62631;PMS5003;48703;51.248;-0.546;2024-03-02T12:01:18;0.00;0.00;
62631;PMS5003;48703;51.248;-0.546;2024-03-02T12:04:20;0.31;0.29;
62631;PMS5003;48703;51.248;-0.546;2024-03-02T12:07:22;0.16;0.16;
62631;PMS5003;48703;51.248;-0.546;2024-03-02T12:10:24;0.97;0.41;
62631;PMS5003;48703;51.248;-0.546;2024-03-02T12:13:26;0.71;0.46;
62631;PMS5003;48703;51.248;-0.546;2024-03-02T12:16:27;0.37;0.37;
62631;PMS5003;48703;51.248;-0.546;2024-03-02T12:19:29;0.11;0.11;
62631;PMS5003;48703;51.248;-0.546;2024-03-02T12:22:31;0.07;0.07;
62631;PMS5003;48703;51.248;-0.546;2024-03-02T12:25:33;0.51;0.00;
62631;PMS5003;48703;51.248;-0.546;2024-03-02T12:28:35;0.40;0.40;
62631;PMS5003;48703;51.248;-0.546;2024-03-02T12:31:36;0.43;0.43;
62631;PMS5003;48703;51.248;-0.546;2024-03-02T12:34:38;0.86;0.74;
62631;PMS5003;48703;51.248;-0.546;2024-03-02T12:37:42;0.43;0.43;
62631;PMS5003;48703;51.248;-0.546;2024-03-02T12:40:42;0.61;0.59;
62631;PMS5003;48703;51.248;-0.546;2024-03-02T12:43:43;1.03;1.03;
62631;PMS5003;48703;51.248;-0.546;2024-03-02T12:46:45;0.90;0.36;
62631;PMS5003;48703;51.248;-0.546;2024-03-02T12:49:47;0.67;0.59;
62631;PMS5003;48703;51.248;-0.546;2024-03-02T12:52:52;1.04;0.43;
62631;PMS5003;48703;51.248;-0.546;2024-03-02T12:55:50;0.36;0.36;
62631;PMS5003;48703;51.248;-0.546;2024-03-02T12:58:53;0.89;0.86;
62631;PMS5003;48703;51.248;-0.546;2024-03-02T13:01:54;1.43;1.09;
62631;PMS5003;48703;51.248;-0.546;2024-03-02T13:04:56;1.84;1.47;
62631;PMS5003;48703;51.248;-0.546;2024-03-02T13:07:58;0.60;0.60;
62631;PMS5003;48703;51.248;-0.546;2024-03-02T13:10:59;1.17;1.01;
62631;PMS5003;48703;51.248;-0.546;2024-03-02T13:14:01;0.67;0.67;
62631;PMS5003;48703;51.248;-0.546;2024-03-02T13:17:03;2.20;1.60;
62631;PMS5003;48703;51.248;-0.546;2024-03-02T13:20:05;1.44;1.14;
62631;PMS5003;48703;51.248;-0.546;2024-03-02T13:23:06;1.97;1.43;
62631;PMS5003;48703;51.248;-0.546;2024-03-02T13:26:09;1.06;1.06;
62631;PMS5003;48703;51.248;-0.546;2024-03-02T13:29:10;1.59;1.59;
62631;PMS5003;48703;51.248;-0.546;2024-03-02T13:32:12;0.89;0.89;
62631;PMS5003;48703;51.248;-0.546;2024-03-02T13:35:13;1.37;0.90;
62631;PMS5003;48703;51.248;-0.546;2024-03-02T13:38:15;1.27;1.27;
62631;PMS5003;48703;51.248;-0.546;2024-03-02T13:41:17;1.00;0.69;
62631;PMS5003;48703;51.248;-0.546;2024-03-02T13:44:19;0.79;0.79;
62631;PMS5003;48703;51.248;-0.546;2024-03-02T13:47:20;1.49;1.16;
62631;PMS5003;48703;51.248;-0.546;2024-03-02T13:50:22;1.49;1.19;
62631;PMS5003;48703;51.248;-0.546;2024-03-02T13:53:24;0.49;0.11;
62631;PMS5003;48703;51.248;-0.546;2024-03-02T13:56:26;1.76;1.16;
62631;PMS5003;48703;51.248;-0.546;2024-03-02T13:59:27;0.83;0.83;
62631;PMS5003;48703;51.248;-0.546;2024-03-02T14:02:29;0.80;0.80;
62631;PMS5003;48703;51.248;-0.546;2024-03-02T14:05:31;1.33;1.33;
62631;PMS5003;48703;51.248;-0.546;2024-03-02T14:08:33;1.10;1.10;
62631;PMS5003;48703;51.248;-0.546;2024-03-02T14:11:34;1.11;1.11;
62631;PMS5003;48703;51.248;-0.546;2024-03-02T14:14:36;1.19;1.19;
62631;PMS5003;48703;51.248;-0.546;2024-03-02T14:17:38;1.83;1.36;
62631;PMS5003;48703;51.248;-0.546;2024-03-02T14:20:39;1.39;1.04;
62631;PMS5003;48703;51.248;-0.546;2024-03-02T14:23:41;1.39;1.39;
62631;PMS5003;48703;51.248;-0.546;2024-03-02T14:26:43;1.56;1.56;
62631;PMS5003;48703;51.248;-0.546;2024-03-02T14:29:46;1.56;0.91;
62631;PMS5003;48703;51.248;-0.546;2024-03-02T14:32:46;1.97;1.74;
62631;PMS5003;48703;51.248;-0.546;2024-03-02T14:35:48;2.13;1.23;
62631;PMS5003;48703;51.248;-0.546;2024-03-02T14:38:50;1.89;1.89;
62631;PMS5003;48703;51.248;-0.546;2024-03-02T14:41:51;2.30;1.77;
62631;PMS5003;48703;51.248;-0.546;2024-03-02T14:44:53;2.23;2.23;
62631;PMS5003;48703;51.248;-0.546;2024-03-02T14:47:55;2.16;1.60;
62631;PMS5003;48703;51.248;-0.546;2024-03-02T14:50:58;2.21;2.21;
62631;PMS5003;48703;51.248;-0.546;2024-03-02T14:53:58;2.13;1.44;
62631;PMS5003;48703;51.248;-0.546;2024-03-02T14:57:00;1.34;1.34;
62631;PMS5003;48703;51.248;-0.546;2024-03-02T15:00:02;2.14;2.14;
62631;PMS5003;48703;51.248;-0.546;2024-03-02T15:03:04;2.20;2.06;
62631;PMS5003;48703;51.248;-0.546;2024-03-02T15:06:06;3.20;2.69;
62631;PMS5003;48703;51.248;-0.546;2024-03-02T15:09:07;2.66;2.09;
62631;PMS5003;48703;51.248;-0.546;2024-03-02T15:12:10;2.03;1.90;
62631;PMS5003;48703;51.248;-0.546;2024-03-02T15:15:11;1.77;1.77;
62631;PMS5003;48703;51.248;-0.546;2024-03-02T15:18:12;2.06;1.76;
62631;PMS5003;48703;51.248;-0.546;2024-03-02T15:21:14;1.41;1.16;
62631;PMS5003;48703;51.248;-0.546;2024-03-02T15:24:16;1.73;1.59;
62631;PMS5003;48703;51.248;-0.546;2024-03-02T15:27:17;1.76;1.76;
62631;PMS5003;48703;51.248;-0.546;2024-03-02T15:30:19;2.01;1.66;
62631;PMS5003;48703;51.248;-0.546;2024-03-02T15:33:22;2.37;1.73;
62631;PMS5003;48703;51.248;-0.546;2024-03-02T15:36:23;1.69;1.17;
62631;PMS5003;48703;51.248;-0.546;2024-03-02T15:39:24;1.29;1.29;
62631;PMS5003;48703;51.248;-0.546;2024-03-02T15:42:26;1.03;1.03;
62631;PMS5003;48703;51.248;-0.546;2024-03-02T15:45:28;1.41;1.09;
62631;PMS5003;48703;51.248;-0.546;2024-03-02T15:48:30;1.07;1.07;
62631;PMS5003;48703;51.248;-0.546;2024-03-02T15:51:31;1.04;1.04;
62631;PMS5003;48703;51.248;-0.546;2024-03-02T15:54:33;1.21;1.21;
62631;PMS5003;48703;51.248;-0.546;2024-03-02T15:57:35;1.39;0.91;
62631;PMS5003;48703;51.248;-0.546;2024-03-02T16:00:36;2.24;2.20;
62631;PMS5003;48703;51.248;-0.546;2024-03-02T16:03:38;2.61;2.23;
62631;PMS5003;48703;51.248;-0.546;2024-03-02T16:06:40;2.29;1.93;
62631;PMS5003;48703;51.248;-0.546;2024-03-02T16:09:42;1.76;1.76;
62631;PMS5003;48703;51.248;-0.546;2024-03-02T16:12:43;1.79;1.74;
62631;PMS5003;48703;51.248;-0.546;2024-03-02T16:15:45;3.01;2.63;
62631;PMS5003;48703;51.248;-0.546;2024-03-02T16:18:47;1.90;1.90;
62631;PMS5003;48703;51.248;-0.546;2024-03-02T16:21:48;4.31;3.33;
62631;PMS5003;48703;51.248;-0.546;2024-03-02T16:24:50;2.63;2.11;
62631;PMS5003;48703;51.248;-0.546;2024-03-02T16:27:52;1.79;1.79;
62631;PMS5003;48703;51.248;-0.546;2024-03-02T16:30:54;2.67;2.16;
62631;PMS5003;48703;51.248;-0.546;2024-03-02T16:33:55;1.79;1.79;
62631;PMS5003;48703;51.248;-0.546;2024-03-02T16:36:57;3.13;2.30;
62631;PMS5003;48703;51.248;-0.546;2024-03-02T16:39:59;3.40;2.29;
62631;PMS5003;48703;51.248;-0.546;2024-03-02T16:43:00;5.79;5.40;
62631;PMS5003;48703;51.248;-0.546;2024-03-02T16:46:02;2.90;2.77;
62631;PMS5003;48703;51.248;-0.546;2024-03-02T16:49:04;2.07;2.07;
62631;PMS5003;48703;51.248;-0.546;2024-03-02T16:52:05;3.09;2.61;
62631;PMS5003;48703;51.248;-0.546;2024-03-02T16:55:07;1.63;1.63;
62631;PMS5003;48703;51.248;-0.546;2024-03-02T16:58:09;1.96;1.96;
62631;PMS5003;48703;51.248;-0.546;2024-03-02T17:01:10;2.60;2.60;
62631;PMS5003;48703;51.248;-0.546;2024-03-02T17:04:12;3.36;3.19;
62631;PMS5003;48703;51.248;-0.546;2024-03-02T17:07:14;4.07;3.33;
62631;PMS5003;48703;51.248;-0.546;2024-03-02T17:10:16;3.46;3.01;
62631;PMS5003;48703;51.248;-0.546;2024-03-02T17:13:17;3.26;2.87;
62631;PMS5003;48703;51.248;-0.546;2024-03-02T17:16:19;4.24;3.54;
62631;PMS5003;48703;51.248;-0.546;2024-03-02T17:19:22;2.71;2.14;
62631;PMS5003;48703;51.248;-0.546;2024-03-02T17:22:23;3.09;2.06;
62631;PMS5003;48703;51.248;-0.546;2024-03-02T17:25:24;2.77;2.77;
62631;PMS5003;48703;51.248;-0.546;2024-03-02T17:28:26;2.73;2.30;
62631;PMS5003;48703;51.248;-0.546;2024-03-02T17:31:28;2.00;2.00;
62631;PMS5003;48703;51.248;-0.546;2024-03-02T17:34:30;2.37;2.37;
62631;PMS5003;48703;51.248;-0.546;2024-03-02T17:37:31;2.83;2.53;
62631;PMS5003;48703;51.248;-0.546;2024-03-02T17:40:33;2.60;2.40;
62631;PMS5003;48703;51.248;-0.546;2024-03-02T17:43:35;3.19;2.39;
62631;PMS5003;48703;51.248;-0.546;2024-03-02T17:46:37;1.71;1.61;
62631;PMS5003;48703;51.248;-0.546;2024-03-02T17:49:38;2.73;2.41;
62631;PMS5003;48703;51.248;-0.546;2024-03-02T17:52:40;3.13;2.70;
62631;PMS5003;48703;51.248;-0.546;2024-03-02T17:55:42;3.84;3.76;
62631;PMS5003;48703;51.248;-0.546;2024-03-02T17:58:44;4.73;4.21;
62631;PMS5003;48703;51.248;-0.546;2024-03-02T18:01:46;4.67;3.87;
62631;PMS5003;48703;51.248;-0.546;2024-03-02T18:04:47;3.64;3.30;
62631;PMS5003;48703;51.248;-0.546;2024-03-02T18:07:49;3.99;3.77;
62631;PMS5003;48703;51.248;-0.546;2024-03-02T18:10:51;2.29;2.29;
62631;PMS5003;48703;51.248;-0.546;2024-03-02T18:13:53;3.73;3.00;
62631;PMS5003;48703;51.248;-0.546;2024-03-02T18:16:54;3.43;3.43;
62631;PMS5003;48703;51.248;-0.546;2024-03-02T18:19:56;4.11;4.01;
62631;PMS5003;48703;51.248;-0.546;2024-03-02T18:22:58;2.97;2.97;
62631;PMS5003;48703;51.248;-0.546;2024-03-02T18:26:00;4.56;2.91;
62631;PMS5003;48703;51.248;-0.546;2024-03-02T18:29:02;2.70;2.40;
62631;PMS5003;48703;51.248;-0.546;2024-03-02T18:32:04;3.26;3.09;
62631;PMS5003;48703;51.248;-0.546;2024-03-02T18:35:05;4.49;3.76;
62631;PMS5003;48703;51.248;-0.546;2024-03-02T18:38:07;4.90;4.47;
62631;PMS5003;48703;51.248;-0.546;2024-03-02T18:41:09;5.87;5.43;
62631;PMS5003;48703;51.248;-0.546;2024-03-02T18:44:12;6.11;6.11;
62631;PMS5003;48703;51.248;-0.546;2024-03-02T18:47:12;6.39;5.99;
62631;PMS5003;48703;51.248;-0.546;2024-03-02T18:50:14;6.40;5.41;
62631;PMS5003;48703;51.248;-0.546;2024-03-02T18:53:16;5.56;5.29;
62631;PMS5003;48703;51.248;-0.546;2024-03-02T18:56:18;7.64;7.64;
62631;PMS5003;48703;51.248;-0.546;2024-03-02T18:59:20;11.13;10.57;
62631;PMS5003;48703;51.248;-0.546;2024-03-02T19:02:22;17.17;15.17;
62631;PMS5003;48703;51.248;-0.546;2024-03-02T19:05:25;30.00;26.83;
62631;PMS5003;48703;51.248;-0.546;2024-03-02T19:08:25;24.39;22.32;
62631;PMS5003;48703;51.248;-0.546;2024-03-02T19:11:26;15.76;15.09;
62631;PMS5003;48703;51.248;-0.546;2024-03-02T19:14:28;8.64;8.11;
62631;PMS5003;48703;51.248;-0.546;2024-03-02T19:17:30;7.70;7.70;
62631;PMS5003;48703;51.248;-0.546;2024-03-02T19:20:31;10.51;9.21;
62631;PMS5003;48703;51.248;-0.546;2024-03-02T19:23:33;10.53;9.89;
62631;PMS5003;48703;51.248;-0.546;2024-03-02T19:26:35;10.97;10.20;
62631;PMS5003;48703;51.248;-0.546;2024-03-02T19:29:36;8.33;7.86;
62631;PMS5003;48703;51.248;-0.546;2024-03-02T19:32:38;9.13;7.93;
62631;PMS5003;48703;51.248;-0.546;2024-03-02T19:35:40;8.20;8.16;
62631;PMS5003;48703;51.248;-0.546;2024-03-02T19:38:42;7.57;6.41;
62631;PMS5003;48703;51.248;-0.546;2024-03-02T19:41:44;6.86;6.70;
62631;PMS5003;48703;51.248;-0.546;2024-03-02T19:44:46;9.86;8.47;
62631;PMS5003;48703;51.248;-0.546;2024-03-02T19:47:48;9.00;9.00;
62631;PMS5003;48703;51.248;-0.546;2024-03-02T19:50:49;9.07;9.07;
62631;PMS5003;48703;51.248;-0.546;2024-03-02T19:53:51;10.35;9.72;
62631;PMS5003;48703;51.248;-0.546;2024-03-02T19:56:53;11.14;11.03;
62631;PMS5003;48703;51.248;-0.546;2024-03-02T19:59:55;11.49;10.80;
62631;PMS5003;48703;51.248;-0.546;2024-03-02T20:02:57;9.87;8.69;
62631;PMS5003;48703;51.248;-0.546;2024-03-02T20:05:58;10.87;9.91;
62631;PMS5003;48703;51.248;-0.546;2024-03-02T20:09:00;7.53;7.53;
62631;PMS5003;48703;51.248;-0.546;2024-03-02T20:12:02;8.13;7.53;
62631;PMS5003;48703;51.248;-0.546;2024-03-02T20:15:04;7.66;7.41;
62631;PMS5003;48703;51.248;-0.546;2024-03-02T20:18:06;8.41;6.40;
62631;PMS5003;48703;51.248;-0.546;2024-03-02T20:21:08;8.13;6.90;
62631;PMS5003;48703;51.248;-0.546;2024-03-02T20:24:09;9.59;8.88;
62631;PMS5003;48703;51.248;-0.546;2024-03-02T20:27:11;7.40;7.01;
62631;PMS5003;48703;51.248;-0.546;2024-03-02T20:30:13;7.09;6.69;
62631;PMS5003;48703;51.248;-0.546;2024-03-02T20:33:15;6.14;5.66;
62631;PMS5003;48703;51.248;-0.546;2024-03-02T20:36:17;7.74;7.74;
62631;PMS5003;48703;51.248;-0.546;2024-03-02T20:39:19;9.04;8.40;
62631;PMS5003;48703;51.248;-0.546;2024-03-02T20:42:20;6.19;6.19;
62631;PMS5003;48703;51.248;-0.546;2024-03-02T20:45:22;7.27;6.43;
62631;PMS5003;48703;51.248;-0.546;2024-03-02T20:48:24;6.87;6.47;
62631;PMS5003;48703;51.248;-0.546;2024-03-02T20:51:26;7.90;7.13;
62631;PMS5003;48703;51.248;-0.546;2024-03-02T20:54:28;5.46;5.16;
62631;PMS5003;48703;51.248;-0.546;2024-03-02T20:57:30;8.77;7.79;
62631;PMS5003;48703;51.248;-0.546;2024-03-02T21:00:32;15.23;13.50;
62631;PMS5003;48703;51.248;-0.546;2024-03-02T21:03:34;10.93;10.20;
62631;PMS5003;48703;51.248;-0.546;2024-03-02T21:06:35;9.24;8.99;
62631;PMS5003;48703;51.248;-0.546;2024-03-02T21:09:37;8.89;8.30;
62631;PMS5003;48703;51.248;-0.546;2024-03-02T21:12:39;9.40;9.40;
62631;PMS5003;48703;51.248;-0.546;2024-03-02T21:15:41;8.94;7.84;
62631;PMS5003;48703;51.248;-0.546;2024-03-02T21:18:43;7.81;6.37;
62631;PMS5003;48703;51.248;-0.546;2024-03-02T21:21:45;9.26;9.17;
62631;PMS5003;48703;51.248;-0.546;2024-03-02T21:24:47;11.34;10.04;
62631;PMS5003;48703;51.248;-0.546;2024-03-02T21:27:49;8.51;7.44;
62631;PMS5003;48703;51.248;-0.546;2024-03-02T21:30:51;8.77;7.23;
62631;PMS5003;48703;51.248;-0.546;2024-03-02T21:33:52;10.11;9.47;
62631;PMS5003;48703;51.248;-0.546;2024-03-02T21:36:54;12.33;11.49;
62631;PMS5003;48703;51.248;-0.546;2024-03-02T21:39:56;13.80;12.84;
62631;PMS5003;48703;51.248;-0.546;2024-03-02T21:42:58;11.71;11.07;
62631;PMS5003;48703;51.248;-0.546;2024-03-02T21:46:00;9.96;9.96;
62631;PMS5003;48703;51.248;-0.546;2024-03-02T21:49:02;10.19;8.69;
62631;PMS5003;48703;51.248;-0.546;2024-03-02T21:52:03;9.97;8.81;
62631;PMS5003;48703;51.248;-0.546;2024-03-02T21:55:06;8.83;7.63;
62631;PMS5003;48703;51.248;-0.546;2024-03-02T21:58:07;8.23;7.34;
62631;PMS5003;48703;51.248;-0.546;2024-03-02T22:01:10;8.27;7.80;
62631;PMS5003;48703;51.248;-0.546;2024-03-02T22:04:11;7.20;6.56;
62631;PMS5003;48703;51.248;-0.546;2024-03-02T22:07:13;8.20;6.36;
62631;PMS5003;48703;51.248;-0.546;2024-03-02T22:10:15;9.19;7.99;
62631;PMS5003;48703;51.248;-0.546;2024-03-02T22:13:17;9.33;8.80;
62631;PMS5003;48703;51.248;-0.546;2024-03-02T22:16:18;10.74;10.66;
62631;PMS5003;48703;51.248;-0.546;2024-03-02T22:19:20;9.46;7.56;
62631;PMS5003;48703;51.248;-0.546;2024-03-02T22:22:22;8.69;7.26;
62631;PMS5003;48703;51.248;-0.546;2024-03-02T22:25:24;8.97;7.60;
62631;PMS5003;48703;51.248;-0.546;2024-03-02T22:28:26;8.46;7.03;
62631;PMS5003;48703;51.248;-0.546;2024-03-02T22:31:28;8.19;6.94;
62631;PMS5003;48703;51.248;-0.546;2024-03-02T22:34:30;7.01;7.01;
62631;PMS5003;48703;51.248;-0.546;2024-03-02T22:37:31;9.12;6.78;
62631;PMS5003;48703;51.248;-0.546;2024-03-02T22:40:33;6.97;6.67;
62631;PMS5003;48703;51.248;-0.546;2024-03-02T22:43:35;6.63;6.07;
62631;PMS5003;48703;51.248;-0.546;2024-03-02T22:46:37;6.61;6.14;
62631;PMS5003;48703;51.248;-0.546;2024-03-02T22:49:39;6.93;6.04;
62631;PMS5003;48703;51.248;-0.546;2024-03-02T22:52:41;6.77;5.89;
62631;PMS5003;48703;51.248;-0.546;2024-03-02T22:55:42;7.14;6.40;
62631;PMS5003;48703;51.248;-0.546;2024-03-02T22:58:44;6.40;6.40;
62631;PMS5003;48703;51.248;-0.546;2024-03-02T23:01:46;7.63;6.69;
62631;PMS5003;48703;51.248;-0.546;2024-03-02T23:04:48;6.73;6.47;
62631;PMS5003;48703;51.248;-0.546;2024-03-02T23:07:50;8.41;8.06;
62631;PMS5003;48703;51.248;-0.546;2024-03-02T23:10:52;7.79;7.04;
62631;PMS5003;48703;51.248;-0.546;2024-03-02T23:13:53;7.80;6.77;
62631;PMS5003;48703;51.248;-0.546;2024-03-02T23:16:55;5.27;5.00;
62631;PMS5003;48703;51.248;-0.546;2024-03-02T23:19:57;7.19;6.66;
62631;PMS5003;48703;51.248;-0.546;2024-03-02T23:22:59;5.23;5.06;
62631;PMS5003;48703;51.248;-0.546;2024-03-02T23:26:01;6.29;5.53;
62631;PMS5003;48703;51.248;-0.546;2024-03-02T23:29:03;6.41;5.94;
62631;PMS5003;48703;51.248;-0.546;2024-03-02T23:32:05;5.77;5.20;
62631;PMS5003;48703;51.248;-0.546;2024-03-02T23:35:07;4.69;4.69;
62631;PMS5003;48703;51.248;-0.546;2024-03-02T23:38:09;5.34;5.34;
62631;PMS5003;48703;51.248;-0.546;2024-03-02T23:41:11;6.36;5.76;
62631;PMS5003;48703;51.248;-0.546;2024-03-02T23:44:12;6.17;5.70;
62631;PMS5003;48703;51.248;-0.546;2024-03-02T23:47:14;7.56;7.00;
62631;PMS5003;48703;51.248;-0.546;2024-03-02T23:50:16;8.07;7.37;
62631;PMS5003;48703;51.248;-0.546;2024-03-02T23:53:18;7.03;6.94;
62631;PMS5003;48703;51.248;-0.546;2024-03-02T23:56:20;7.99;7.42;
62631;PMS5003;48703;51.248;-0.546;2024-03-02T23:59:22;8.07;7.23;
